createdAt,value
2018-02-10T00:00:57.581Z,40.50
2018-02-10T00:03:25.200Z,37.10
2018-02-10T00:05:52.805Z,40.37
2018-02-10T00:08:20.452Z,33.07
2018-02-10T00:10:48.049Z,39.67
2018-02-10T00:13:15.653Z,42.03
2018-02-10T00:15:43.277Z,36.53
2018-02-10T00:18:11.645Z,42.27
2018-02-10T00:20:39.277Z,41.73
2018-02-10T00:23:06.880Z,39.13
2018-02-10T00:25:35.249Z,40.77
2018-02-10T00:28:02.869Z,36.20
2018-02-10T00:30:30.460Z,35.10
2018-02-10T00:32:58.908Z,40.83
2018-02-10T00:35:26.506Z,39.00
2018-02-10T00:37:54.136Z,42.37
2018-02-10T00:40:21.728Z,41.70
2018-02-10T00:42:49.344Z,37.60
2018-02-10T00:45:16.985Z,43.03
2018-02-10T00:47:44.585Z,38.93
2018-02-10T00:50:12.252Z,41.87
2018-02-10T00:52:40.631Z,38.77
2018-02-10T00:55:08.228Z,39.83
2018-02-10T00:57:36.626Z,40.27
2018-02-10T01:00:04.228Z,40.33
2018-02-10T01:02:31.873Z,39.27
2018-02-10T01:04:59.481Z,38.00
2018-02-10T01:07:27.091Z,41.70
2018-02-10T01:09:54.725Z,40.07
2018-02-10T01:12:22.329Z,41.53
2018-02-10T01:14:49.959Z,41.30
2018-02-10T01:17:17.572Z,39.77
2018-02-10T01:19:45.183Z,41.50
2018-02-10T01:22:12.820Z,39.43
2018-02-10T01:24:41.225Z,41.03
2018-02-10T01:27:08.918Z,39.27
2018-02-10T01:29:36.519Z,41.40
2018-02-10T01:32:04.933Z,44.10
2018-02-10T01:34:32.562Z,41.27
2018-02-10T01:37:01.000Z,38.07
2018-02-10T01:39:28.630Z,39.53
2018-02-10T01:41:56.258Z,39.40
2018-02-10T01:44:24.665Z,39.17
2018-02-10T01:46:52.269Z,42.00
2018-02-10T01:49:19.865Z,41.77
2018-02-10T01:51:48.264Z,40.00
2018-02-10T01:54:15.867Z,39.40
2018-02-10T01:56:44.239Z,41.60
2018-02-10T01:59:11.856Z,31.27
2018-02-10T02:01:39.500Z,30.90
2018-02-10T02:04:07.875Z,38.07
2018-02-10T02:06:36.258Z,37.37
2018-02-10T02:09:04.681Z,41.90
2018-02-10T02:11:32.273Z,37.07
2018-02-10T02:13:59.904Z,35.10
2018-02-10T02:16:27.546Z,38.83
2018-02-10T02:18:55.198Z,39.00
2018-02-10T02:21:22.833Z,40.50
2018-02-10T02:23:51.196Z,33.53
2018-02-10T02:26:18.825Z,38.97
2018-02-10T02:28:46.426Z,40.27
2018-02-10T02:31:14.821Z,39.60
2018-02-10T02:33:43.192Z,32.77
2018-02-10T02:36:11.656Z,34.77
2018-02-10T02:38:39.511Z,36.70
2018-02-10T02:41:07.152Z,35.17
2018-02-10T02:43:34.824Z,40.67
2018-02-10T02:46:02.464Z,31.33
2018-02-10T02:48:30.118Z,31.67
2018-02-10T02:50:57.812Z,35.83
2018-02-10T02:53:25.516Z,35.50
2018-02-10T02:55:53.882Z,31.00
2018-02-10T02:58:22.328Z,34.60
2018-02-10T03:00:49.963Z,30.63
2018-02-10T03:03:17.573Z,36.23
2018-02-10T03:05:45.215Z,33.87
2018-02-10T03:08:12.824Z,37.77
2018-02-10T03:10:41.205Z,28.07
2018-02-10T03:13:09.604Z,34.77
2018-02-10T03:15:37.196Z,30.77
2018-02-10T03:18:04.827Z,34.10
2018-02-10T03:20:32.427Z,33.67
2018-02-10T03:23:00.036Z,29.00
2018-02-10T03:25:27.733Z,33.17
2018-02-10T03:27:55.332Z,34.63
2018-02-10T03:30:23.754Z,32.50
2018-02-10T03:32:51.444Z,32.40
2018-02-10T03:35:19.047Z,24.37
2018-02-10T03:37:47.437Z,34.40
2018-02-10T03:40:15.108Z,33.70
2018-02-10T03:42:43.489Z,31.20
2018-02-10T03:45:11.141Z,33.80
2018-02-10T03:47:39.529Z,29.73
2018-02-10T03:50:07.150Z,34.00
2018-02-10T03:52:35.570Z,28.00
2018-02-10T03:55:03.176Z,32.67
2018-02-10T03:57:30.784Z,34.47
2018-02-10T03:59:58.404Z,33.87
2018-02-10T04:02:26.005Z,34.20
2018-02-10T04:04:53.646Z,35.20
2018-02-10T04:07:21.236Z,35.27
2018-02-10T04:09:48.921Z,36.67
2018-02-10T04:12:16.534Z,36.57
2018-02-10T04:14:44.907Z,33.53
2018-02-10T04:17:13.303Z,33.50
2018-02-10T04:19:40.925Z,33.10
2018-02-10T04:22:08.555Z,33.37
2018-02-10T04:24:36.252Z,32.60
2018-02-10T04:27:03.914Z,36.80
2018-02-10T04:29:32.295Z,27.77
2018-02-10T04:32:01.447Z,27.53
2018-02-10T04:34:29.117Z,27.97
2018-02-10T04:36:56.738Z,29.87
2018-02-10T04:39:25.211Z,33.07
2018-02-10T04:41:53.599Z,34.00
2018-02-10T04:44:22.018Z,34.13
2018-02-10T04:46:49.612Z,29.97
2018-02-10T04:49:17.225Z,29.30
2018-02-10T04:51:44.937Z,33.17
2018-02-10T04:54:14.110Z,31.90
2018-02-10T04:56:41.739Z,30.07
2018-02-10T04:59:09.380Z,35.13
2018-02-10T05:01:37.789Z,30.57
2018-02-10T05:04:05.401Z,30.50
2018-02-10T05:06:33.012Z,33.60
2018-02-10T05:09:00.653Z,26.10
2018-02-10T05:11:29.040Z,26.53
2018-02-10T05:13:56.681Z,30.00
2018-02-10T05:16:25.063Z,29.73
2018-02-10T05:18:53.462Z,31.70
2018-02-10T05:21:21.096Z,32.30
2018-02-10T05:23:48.737Z,30.70
2018-02-10T05:26:16.337Z,30.70
2018-02-10T05:28:44.719Z,32.27
2018-02-10T05:31:12.376Z,33.70
2018-02-10T05:33:40.753Z,33.80
2018-02-10T05:36:09.152Z,33.27
2018-02-10T05:38:36.780Z,33.77
2018-02-10T05:41:05.205Z,34.63
2018-02-10T05:43:32.831Z,35.30
2018-02-10T05:46:01.214Z,34.23
2018-02-10T05:48:29.605Z,30.27
2018-02-10T05:50:57.201Z,30.10
2018-02-10T05:53:24.824Z,36.63
2018-02-10T05:55:52.452Z,34.27
2018-02-10T05:58:20.089Z,31.90
2018-02-10T06:00:47.737Z,32.70
2018-02-10T06:03:15.345Z,32.60
2018-02-10T06:05:43.753Z,33.70
2018-02-10T06:08:11.351Z,32.10
2018-02-10T06:10:38.980Z,32.13
2018-02-10T06:13:06.576Z,33.87
2018-02-10T06:15:34.212Z,32.10
2018-02-10T06:18:01.826Z,35.30
2018-02-10T06:20:30.224Z,33.33
2018-02-10T06:22:57.869Z,33.87
2018-02-10T06:25:26.269Z,33.93
2018-02-10T06:27:53.908Z,34.27
2018-02-10T06:30:22.306Z,31.53
2018-02-10T06:32:49.947Z,35.87
2018-02-10T06:35:18.327Z,33.40
2018-02-10T06:37:46.731Z,36.63
2018-02-10T06:40:14.328Z,34.13
2018-02-10T06:42:41.951Z,33.17
2018-02-10T06:45:09.557Z,36.20
2018-02-10T06:47:37.204Z,28.83
2018-02-10T06:50:04.804Z,32.43
2018-02-10T06:52:32.430Z,30.63
2018-02-10T06:55:00.050Z,30.63
2018-02-10T06:57:32.212Z,30.47
2018-02-10T07:00:00.583Z,32.27
2018-02-10T07:02:28.988Z,31.97
2018-02-10T07:04:56.597Z,33.70
2018-02-10T07:07:25.751Z,31.43
2018-02-10T07:09:53.363Z,33.83
2018-02-10T07:12:20.966Z,37.97
2018-02-10T07:14:48.592Z,33.30
2018-02-10T07:17:16.965Z,26.80
2018-02-10T07:19:44.600Z,28.47
2018-02-10T07:22:12.209Z,34.10
2018-02-10T07:24:39.896Z,26.20
2018-02-10T07:27:07.484Z,29.00
2018-02-10T07:29:35.093Z,28.87
2018-02-10T07:32:02.733Z,32.90
2018-02-10T07:34:30.335Z,28.33
2018-02-10T07:36:57.961Z,34.10
2018-02-10T07:39:26.346Z,25.80
2018-02-10T07:41:54.736Z,29.13
2018-02-10T07:44:22.334Z,33.17
2018-02-10T07:46:49.982Z,29.70
2018-02-10T07:49:17.603Z,33.40
2018-02-10T07:51:46.048Z,28.80
2018-02-10T07:54:13.675Z,31.77
2018-02-10T07:56:41.297Z,29.23
2018-02-10T07:59:09.029Z,30.33
2018-02-10T08:01:36.644Z,30.93
2018-02-10T08:04:05.166Z,30.80
2018-02-10T08:06:32.766Z,29.33
2018-02-10T08:09:01.248Z,30.43
2018-02-10T08:11:29.631Z,31.60
2018-02-10T08:13:57.998Z,32.80
2018-02-10T08:16:26.388Z,25.40
2018-02-10T08:18:54.758Z,32.67
2018-02-10T08:21:22.384Z,30.13
2018-02-10T08:23:50.001Z,33.00
2018-02-10T08:26:18.404Z,22.37
2018-02-10T08:28:46.004Z,22.90
2018-02-10T08:31:13.681Z,23.83
2018-02-10T08:33:41.290Z,28.73
2018-02-10T08:36:08.902Z,25.73
2018-02-10T08:38:37.294Z,24.20
2018-02-10T08:41:05.660Z,24.57
2018-02-10T08:43:34.060Z,25.10
2018-02-10T08:46:02.439Z,25.53
2018-02-10T08:48:30.975Z,30.53
2018-02-10T08:50:58.628Z,26.47
2018-02-10T08:53:26.233Z,28.20
2018-02-10T08:55:54.677Z,26.50
2018-02-10T08:58:22.274Z,24.03
2018-02-10T09:00:50.725Z,29.33
2018-02-10T09:03:18.486Z,28.50
2018-02-10T09:05:46.245Z,26.23
2018-02-10T09:08:13.841Z,30.17
2018-02-10T09:10:42.209Z,27.40
2018-02-10T09:13:09.841Z,31.17
2018-02-10T09:15:37.438Z,32.30
2018-02-10T09:18:05.171Z,27.70
2018-02-10T09:20:32.765Z,29.20
2018-02-10T09:23:01.189Z,23.60
2018-02-10T09:25:28.924Z,22.80
2018-02-10T09:27:56.584Z,31.07
2018-02-10T09:30:24.245Z,30.30
2018-02-10T09:32:52.608Z,25.27
2018-02-10T09:35:21.001Z,19.40
2018-02-10T09:37:49.367Z,29.57
2018-02-10T09:40:16.987Z,31.47
2018-02-10T09:42:44.576Z,24.20
2018-02-10T09:45:12.185Z,19.93
2018-02-10T09:47:39.807Z,28.43
2018-02-10T09:50:08.244Z,28.30
2018-02-10T09:52:35.909Z,23.00
2018-02-10T09:55:03.500Z,28.37
2018-02-10T09:57:31.088Z,21.07
2018-02-10T09:59:59.467Z,25.23
2018-02-10T10:02:27.824Z,20.27
2018-02-10T10:04:56.948Z,26.33
2018-02-10T10:07:24.657Z,27.53
2018-02-10T10:09:52.285Z,24.37
2018-02-10T10:12:19.907Z,23.70
2018-02-10T10:14:48.288Z,29.00
2018-02-10T10:17:15.902Z,19.60
2018-02-10T10:19:43.535Z,21.90
2018-02-10T10:22:11.194Z,24.43
2018-02-10T10:24:39.613Z,24.30
2018-02-10T10:27:07.269Z,21.43
2018-02-10T10:29:34.888Z,23.43
2018-02-10T10:32:03.285Z,24.40
2018-02-10T10:34:30.908Z,18.47
2018-02-10T10:36:59.354Z,22.10
2018-02-10T10:39:26.974Z,24.10
2018-02-10T10:41:54.580Z,19.10
2018-02-10T10:44:22.205Z,22.50
2018-02-10T10:46:49.868Z,21.50
2018-02-10T10:49:18.246Z,24.20
2018-02-10T10:51:45.936Z,22.37
2018-02-10T10:54:13.577Z,23.13
2018-02-10T10:56:41.196Z,26.03
2018-02-10T10:59:08.831Z,25.20
2018-02-10T11:01:36.439Z,20.60
2018-02-10T11:04:04.825Z,20.50
2018-02-10T11:06:32.531Z,18.73
2018-02-10T11:09:00.156Z,23.23
2018-02-10T11:11:27.765Z,24.10
2018-02-10T11:13:55.477Z,18.13
2018-02-10T11:16:23.097Z,23.13
2018-02-10T11:18:50.700Z,23.50
2018-02-10T11:21:18.336Z,22.23
2018-02-10T11:23:46.709Z,22.97
2018-02-10T11:26:14.428Z,19.40
2018-02-10T11:28:42.028Z,21.40
2018-02-10T11:31:09.664Z,21.03
2018-02-10T11:33:37.292Z,21.37
2018-02-10T11:36:04.894Z,16.93
2018-02-10T11:38:32.515Z,16.10
2018-02-10T11:41:00.114Z,16.33
2018-02-10T11:43:27.731Z,17.83
2018-02-10T11:45:55.332Z,16.90
2018-02-10T11:48:22.969Z,16.73
2018-02-10T11:50:50.565Z,18.63
2018-02-10T11:53:19.676Z,15.80
2018-02-10T11:55:48.064Z,17.07
2018-02-10T11:58:16.430Z,18.03
2018-02-10T12:00:44.070Z,17.37
2018-02-10T12:03:11.670Z,20.33
2018-02-10T12:05:40.089Z,18.80
2018-02-10T12:08:07.690Z,17.63
2018-02-10T12:10:35.414Z,13.83
2018-02-10T12:13:03.216Z,16.27
2018-02-10T12:15:30.972Z,17.17
2018-02-10T12:17:58.798Z,13.97
2018-02-10T12:20:26.404Z,20.17
2018-02-10T12:22:54.800Z,16.67
2018-02-10T12:25:23.181Z,18.60
2018-02-10T12:27:50.804Z,17.03
2018-02-10T12:30:18.424Z,17.23
2018-02-10T12:32:46.019Z,17.30
2018-02-10T12:35:13.647Z,13.00
2018-02-10T12:37:41.277Z,15.73
2018-02-10T12:40:09.097Z,12.37
2018-02-10T12:42:36.696Z,13.10
2018-02-10T12:45:05.072Z,15.67
2018-02-10T12:47:39.116Z,16.07
2018-02-10T12:50:06.716Z,14.00
2018-02-10T12:52:34.341Z,18.07
2018-02-10T12:55:01.973Z,15.70
2018-02-10T12:57:29.608Z,12.70
2018-02-10T12:59:57.221Z,12.27
2018-02-10T13:02:24.878Z,14.47
2018-02-10T13:04:52.492Z,14.60
2018-02-10T13:07:20.887Z,13.30
2018-02-10T13:09:48.519Z,15.00
2018-02-10T13:12:16.135Z,12.80
2018-02-10T13:14:44.533Z,13.40
2018-02-10T13:17:12.132Z,13.70
2018-02-10T13:19:40.595Z,16.30
2018-02-10T13:22:08.185Z,13.63
2018-02-10T13:24:35.789Z,17.70
2018-02-10T13:27:03.425Z,17.67
2018-02-10T13:29:31.791Z,16.77
2018-02-10T13:31:59.408Z,10.70
2018-02-10T13:34:27.023Z,12.10
2018-02-10T13:36:54.671Z,12.50
2018-02-10T13:39:22.274Z,11.37
2018-02-10T13:41:49.912Z,12.30
2018-02-10T13:44:18.281Z,17.10
2018-02-10T13:46:45.891Z,11.57
2018-02-10T13:49:13.523Z,13.97
2018-02-10T13:51:41.888Z,18.33
2018-02-10T13:54:10.323Z,13.70
2018-02-10T13:56:37.921Z,14.57
2018-02-10T13:59:07.079Z,12.67
2018-02-10T14:01:34.685Z,14.07
2018-02-10T14:04:03.083Z,9.93
2018-02-10T14:06:30.783Z,15.43
2018-02-10T14:08:58.384Z,11.47
2018-02-10T14:11:26.058Z,13.63
2018-02-10T14:13:54.468Z,15.00
2018-02-10T14:16:22.086Z,16.00
2018-02-10T14:18:49.711Z,13.20
2018-02-10T14:21:17.308Z,15.20
2018-02-10T14:23:45.700Z,13.70
2018-02-10T14:26:14.076Z,16.83
2018-02-10T14:28:42.469Z,14.77
2018-02-10T14:31:10.077Z,13.47
2018-02-10T14:33:37.733Z,14.60
2018-02-10T14:36:05.328Z,14.73
2018-02-10T14:38:33.006Z,16.50
2018-02-10T14:41:01.368Z,14.90
2018-02-10T14:43:29.787Z,14.40
2018-02-10T14:45:57.387Z,15.30
2018-02-10T14:48:25.013Z,14.57
2018-02-10T14:50:52.641Z,17.10
2018-02-10T14:53:21.005Z,15.70
2018-02-10T14:55:49.412Z,16.10
2018-02-10T14:58:17.112Z,13.63
2018-02-10T15:00:44.743Z,20.27
2018-02-10T15:03:12.332Z,13.57
2018-02-10T15:05:40.016Z,15.97
2018-02-10T15:08:07.663Z,14.93
2018-02-10T15:10:35.284Z,15.20
2018-02-10T15:13:02.888Z,16.07
2018-02-10T15:15:30.519Z,16.27
2018-02-10T15:17:58.121Z,18.10
2018-02-10T15:20:25.855Z,16.37
2018-02-10T15:22:53.465Z,21.30
2018-02-10T15:25:21.852Z,20.70
2018-02-10T15:27:50.254Z,20.93
2018-02-10T15:30:29.869Z,18.10
2018-02-10T15:33:10.161Z,16.47
2018-02-10T15:35:37.769Z,18.47
2018-02-10T15:38:06.205Z,18.90
2018-02-10T15:40:33.804Z,19.47
2018-02-10T15:43:01.436Z,19.20
2018-02-10T15:45:29.038Z,16.70
2018-02-10T15:47:56.695Z,21.50
2018-02-10T15:50:25.124Z,17.50
2018-02-10T15:52:52.752Z,19.10
2018-02-10T15:55:20.433Z,19.60
2018-02-10T15:57:48.137Z,19.20
2018-02-10T16:00:15.777Z,21.00
2018-02-10T16:02:43.388Z,22.00
2018-02-10T16:05:11.124Z,25.87
2018-02-10T16:07:38.720Z,22.60
2018-02-10T16:10:07.116Z,18.97
2018-02-10T16:12:34.776Z,19.87
2018-02-10T16:15:03.185Z,21.10
2018-02-10T16:17:30.783Z,23.43
2018-02-10T16:19:58.520Z,22.40
2018-02-10T16:22:26.118Z,19.40
2018-02-10T16:24:54.523Z,24.07
2018-02-10T16:27:22.135Z,19.73
2018-02-10T16:29:49.773Z,24.23
2018-02-10T16:32:17.403Z,17.90
2018-02-10T16:34:45.767Z,22.10
2018-02-10T16:37:14.176Z,21.90
2018-02-10T16:39:41.808Z,22.87
2018-02-10T16:42:10.201Z,22.53
2018-02-10T16:44:38.560Z,20.30
2018-02-10T16:47:06.244Z,22.43
2018-02-10T16:49:33.840Z,19.97
2018-02-10T16:52:01.463Z,22.40
2018-02-10T16:54:29.819Z,23.43
2018-02-10T16:56:57.420Z,18.50
2018-02-10T16:59:25.060Z,24.80
2018-02-10T17:01:52.694Z,22.10
2018-02-10T17:04:20.339Z,21.57
2018-02-10T17:06:47.948Z,27.37
2018-02-10T17:09:15.603Z,22.03
2018-02-10T17:11:43.968Z,23.63
2018-02-10T17:14:11.727Z,24.43
2018-02-10T17:16:40.104Z,21.10
2018-02-10T17:19:07.732Z,18.50
2018-02-10T17:21:35.334Z,21.27
2018-02-10T17:24:03.741Z,20.90
2018-02-10T17:26:31.334Z,23.43
2018-02-10T17:28:59.009Z,23.70
2018-02-10T17:31:26.641Z,18.07
2018-02-10T17:33:54.277Z,18.47
2018-02-10T17:36:21.906Z,19.77
2018-02-10T17:38:49.510Z,20.07
2018-02-10T17:41:17.186Z,21.73
2018-02-10T17:43:44.779Z,25.10
2018-02-10T17:46:12.385Z,23.50
2018-02-10T17:48:40.017Z,19.50
2018-02-10T17:51:07.613Z,24.40
2018-02-10T17:53:35.244Z,19.70
2018-02-10T17:56:03.669Z,24.70
2018-02-10T17:58:31.298Z,23.83
2018-02-10T18:00:59.659Z,18.70
2018-02-10T18:03:27.252Z,24.77
2018-02-10T18:05:55.165Z,23.97
2018-02-10T18:08:22.760Z,26.37
2018-02-10T18:10:51.147Z,20.83
2018-02-10T18:13:19.508Z,28.27
2018-02-10T18:15:47.134Z,22.80
2018-02-10T18:18:14.900Z,28.20
2018-02-10T18:20:42.551Z,24.73
2018-02-10T18:23:10.180Z,24.50
2018-02-10T18:25:38.001Z,24.27
2018-02-10T18:28:05.626Z,24.37
2018-02-10T18:30:33.417Z,24.60
2018-02-10T18:33:01.054Z,24.37
2018-02-10T18:35:28.659Z,18.27
2018-02-10T18:37:56.262Z,26.80
2018-02-10T18:40:23.884Z,28.70
2018-02-10T18:42:51.477Z,22.07
2018-02-10T18:45:19.397Z,22.60
2018-02-10T18:47:46.995Z,23.33
2018-02-10T18:50:15.394Z,20.63
2018-02-10T18:52:42.990Z,22.83
2018-02-10T18:55:10.605Z,24.47
2018-02-10T18:57:38.234Z,20.37
2018-02-10T19:00:05.829Z,20.93
2018-02-10T19:02:33.464Z,22.37
2018-02-10T19:05:01.819Z,20.83
2018-02-10T19:07:29.451Z,26.23
2018-02-10T19:09:57.048Z,24.50
2018-02-10T19:12:24.651Z,24.97
2018-02-10T19:14:52.284Z,25.73
2018-02-10T19:17:20.718Z,27.03
2018-02-10T19:19:48.355Z,22.80
2018-02-10T19:22:16.041Z,25.50
2018-02-10T19:24:43.672Z,29.80
2018-02-10T19:27:11.369Z,25.60
2018-02-10T19:29:38.970Z,22.53
2018-02-10T19:32:06.585Z,25.93
2018-02-10T19:34:34.177Z,26.70
2018-02-10T19:37:01.818Z,26.33
2018-02-10T19:39:29.408Z,22.77
2018-02-10T19:41:57.046Z,22.73
2018-02-10T19:44:24.649Z,33.33
2018-02-10T19:46:52.257Z,28.00
2018-02-10T19:49:19.876Z,30.70
2018-02-10T19:51:47.478Z,23.90
2018-02-10T19:54:15.105Z,22.80
2018-02-10T19:56:42.697Z,25.93
2018-02-10T19:59:10.362Z,27.53
2018-02-10T20:01:37.972Z,19.97
2018-02-10T20:04:06.352Z,22.20
2018-02-10T20:06:34.758Z,27.67
2018-02-10T20:09:02.443Z,23.37
2018-02-10T20:11:30.072Z,25.67
2018-02-10T20:13:57.674Z,26.37
2018-02-10T20:16:25.311Z,28.77
2018-02-10T20:18:52.932Z,22.67
2018-02-10T20:21:21.298Z,22.10
2018-02-10T20:23:48.921Z,20.17
2018-02-10T20:26:16.525Z,25.60
2018-02-10T20:28:44.145Z,27.77
2018-02-10T20:31:11.735Z,22.20
2018-02-10T20:33:39.325Z,23.57
2018-02-10T20:36:07.708Z,22.90
2018-02-10T20:38:35.302Z,21.73
2018-02-10T20:41:02.940Z,21.63
2018-02-10T20:43:30.562Z,28.17
2018-02-10T20:45:58.154Z,28.13
2018-02-10T20:48:25.784Z,24.93
2018-02-10T20:50:54.160Z,27.10
2018-02-10T20:53:21.789Z,23.40
2018-02-10T20:55:49.382Z,22.77
2018-02-10T20:58:16.973Z,22.97
2018-02-10T21:00:44.596Z,24.03
2018-02-10T21:03:12.952Z,21.77
2018-02-10T21:05:40.581Z,19.83
2018-02-10T21:08:08.168Z,22.73
2018-02-10T21:10:35.763Z,15.83
2018-02-10T21:13:03.394Z,22.03
2018-02-10T21:15:30.990Z,22.43
2018-02-10T21:17:59.388Z,20.30
2018-02-10T21:20:27.760Z,21.50
2018-02-10T21:22:56.162Z,23.07
2018-02-10T21:25:23.766Z,24.13
2018-02-10T21:27:51.444Z,19.73
2018-02-10T21:30:19.066Z,19.57
2018-02-10T21:32:46.663Z,23.83
2018-02-10T21:35:15.059Z,17.27
2018-02-10T21:37:43.417Z,18.47
2018-02-10T21:40:11.809Z,22.13
2018-02-10T21:42:39.414Z,20.40
2018-02-10T21:45:07.021Z,25.23
2018-02-10T21:47:34.740Z,20.63
2018-02-10T21:50:02.394Z,21.10
2018-02-10T21:52:30.072Z,18.57
2018-02-10T21:54:57.681Z,17.97
2018-02-10T21:57:25.308Z,21.23
2018-02-10T21:59:52.933Z,21.27
2018-02-10T22:02:20.524Z,17.27
2018-02-10T22:04:49.121Z,22.57
2018-02-10T22:07:16.712Z,17.90
2018-02-10T22:09:45.078Z,21.57
2018-02-10T22:12:12.911Z,16.47
2018-02-10T22:14:40.500Z,16.57
2018-02-10T22:17:08.243Z,20.80
2018-02-10T22:19:35.841Z,17.63
2018-02-10T22:22:04.201Z,17.97
2018-02-10T22:24:31.830Z,18.90
2018-02-10T22:26:59.434Z,20.03
2018-02-10T22:29:29.770Z,17.30
2018-02-10T22:31:57.527Z,16.37
2018-02-10T22:34:25.920Z,17.90
2018-02-10T22:36:54.287Z,17.00
2018-02-10T22:39:22.647Z,19.63
2018-02-10T22:41:50.277Z,18.60
2018-02-10T22:44:17.891Z,15.73
2018-02-10T22:46:46.281Z,18.97
2018-02-10T22:49:14.403Z,19.90
2018-02-10T22:51:42.041Z,17.27
2018-02-10T22:54:09.638Z,20.87
2018-02-10T22:56:37.232Z,17.20
2018-02-10T22:59:05.628Z,21.60
2018-02-10T23:01:33.220Z,20.70
2018-02-10T23:06:34.789Z,21.33
2018-02-10T23:09:03.244Z,22.20
2018-02-10T23:11:30.840Z,19.07
2018-02-10T23:13:58.433Z,17.93
2018-02-10T23:16:26.815Z,20.57
2018-02-10T23:18:55.282Z,18.27
2018-02-10T23:21:23.676Z,20.63
2018-02-10T23:23:52.035Z,24.20
2018-02-10T23:26:19.667Z,20.30
2018-02-10T23:28:47.283Z,21.67
2018-02-10T23:31:15.698Z,19.80
2018-02-10T23:33:43.439Z,20.03
2018-02-10T23:36:11.036Z,21.20
2018-02-10T23:38:38.677Z,19.63
2018-02-10T23:41:06.273Z,16.10
2018-02-10T23:43:33.908Z,17.60
2018-02-10T23:46:01.506Z,17.47
2018-02-10T23:48:29.180Z,20.07
2018-02-10T23:50:57.596Z,22.57
2018-02-10T23:53:25.201Z,18.50
2018-02-10T23:55:52.826Z,18.67
2018-02-10T23:58:20.428Z,18.60
